Time;durP1;ratioP1;P1;durP2;ratioP2;P2;SDS_P1;SDS_P2;PMS_P1;PMS_P2;Temp;Humidity;BMP_temperature;BMP_pressure;BME280_temperature;BME280_humidity;BME280_pressure;Samples;Min_cycle;Max_cycle;Signal;HPM_P1;HPM_P2
2023/10/04 00:00:14;;;;;;;1074.18;940.70;;;12.60;99.90;;;;;;4905034;29;20067;-96
2023/10/04 00:02:43;;;;;;;1038.82;925.58;;;12.60;99.90;;;;;;4905398;29;20407;-95
2023/10/04 00:05:10;;;;;;;1041.13;923.53;;;12.60;99.90;;;;;;4915449;29;20048;-94
2023/10/04 00:07:36;;;;;;;1056.63;933.97;;;12.50;99.90;;;;;;4916470;29;20043;-95
2023/10/04 00:10:05;;;;;;;1126.35;953.88;;;12.50;99.90;;;;;;4903930;29;20432;-95
2023/10/04 00:12:32;;;;;;;1389.15;999.90;;;12.40;99.90;;;;;;4903198;29;20051;-95
2023/10/04 00:14:58;;;;;;;1371.43;999.90;;;12.50;99.90;;;;;;4903179;29;20499;-95
2023/10/04 00:17:23;;;;;;;1184.80;987.53;;;12.40;99.90;;;;;;4899864;29;20066;-96
2023/10/04 00:19:49;;;;;;;1137.25;956.83;;;12.40;99.90;;;;;;4900414;29;20059;-95
2023/10/04 00:22:18;;;;;;;1192.55;972.55;;;12.40;99.90;;;;;;4903140;29;20126;-95
2023/10/04 00:24:44;;;;;;;1332.10;999.90;;;12.40;99.90;;;;;;4899459;29;20086;-95
2023/10/04 00:27:10;;;;;;;1159.05;965.72;;;12.30;99.90;;;;;;4894797;29;20048;-95
2023/10/04 00:29:41;;;;;;;1160.63;970.60;;;12.30;99.90;;;;;;4898678;29;20072;-95
2023/10/04 00:32:07;;;;;;;1243.97;987.42;;;12.30;99.90;;;;;;4896312;29;20056;-95
2023/10/04 00:34:33;;;;;;;1359.53;999.90;;;12.20;99.90;;;;;;4902496;29;20039;-95
2023/10/04 00:36:59;;;;;;;1198.18;979.63;;;12.20;99.90;;;;;;4902868;29;20065;-95
2023/10/04 00:39:25;;;;;;;1344.22;998.90;;;12.20;99.90;;;;;;4903433;29;20525;-95
2023/10/04 00:41:53;;;;;;;1307.05;996.67;;;12.20;99.90;;;;;;4889961;29;20041;-95
2023/10/04 00:44:19;;;;;;;1217.47;977.97;;;12.10;99.90;;;;;;4903317;29;20043;-95
2023/10/04 00:46:45;;;;;;;1237.32;990.38;;;12.10;99.90;;;;;;4901716;29;20497;-95
2023/10/04 00:49:12;;;;;;;1297.50;997.92;;;12.10;99.90;;;;;;4899684;29;20379;-94
2023/10/04 00:51:40;;;;;;;1239.43;988.47;;;12.10;99.90;;;;;;4897478;29;20044;-95
2023/10/04 00:54:09;;;;;;;1306.97;997.70;;;12.10;99.90;;;;;;4899333;29;20040;-95
2023/10/04 00:56:38;;;;;;;1307.40;998.67;;;12.00;99.90;;;;;;4899070;29;20080;-95
2023/10/04 00:59:04;;;;;;;1374.15;999.90;;;12.00;99.90;;;;;;4902613;29;20127;-94
2023/10/04 01:01:31;;;;;;;1380.25;999.90;;;12.00;99.90;;;;;;4901578;29;20079;-95
2023/10/04 01:03:59;;;;;;;1365.18;999.90;;;12.00;99.90;;;;;;4902223;29;20050;-95
2023/10/04 01:06:24;;;;;;;1209.78;974.63;;;12.00;99.90;;;;;;4898511;29;20044;-94
2023/10/04 01:08:51;;;;;;;1228.13;984.47;;;12.00;99.90;;;;;;4889454;29;20067;-95
2023/10/04 01:11:16;;;;;;;1286.45;993.13;;;12.00;99.90;;;;;;4898987;29;20051;-94
2023/10/04 01:13:42;;;;;;;1403.55;999.90;;;12.00;99.90;;;;;;4901005;29;20047;-94
2023/10/04 01:16:09;;;;;;;1276.47;985.95;;;11.90;99.90;;;;;;4898784;29;20055;-96
2023/10/04 01:18:37;;;;;;;1256.47;987.15;;;11.90;99.90;;;;;;4889372;29;20040;-94
2023/10/04 01:21:03;;;;;;;1449.53;999.90;;;11.90;99.90;;;;;;4896186;29;20147;-94
2023/10/04 01:23:29;;;;;;;1296.30;996.85;;;11.90;99.90;;;;;;4890207;29;20567;-95
2023/10/04 01:26:00;;;;;;;1359.07;999.90;;;11.90;99.90;;;;;;4899276;29;20055;-95
2023/10/04 01:28:28;;;;;;;1442.20;999.90;;;11.80;99.90;;;;;;4901713;29;20099;-94
2023/10/04 01:30:55;;;;;;;1388.55;999.90;;;11.80;99.90;;;;;;4900812;29;20044;-94
2023/10/04 01:33:21;;;;;;;1251.18;988.45;;;11.80;99.90;;;;;;4897959;29;20044;-94
2023/10/04 01:35:49;;;;;;;1350.95;999.90;;;11.80;99.90;;;;;;4896260;29;20508;-95
2023/10/04 01:38:16;;;;;;;1303.80;998.47;;;11.90;99.90;;;;;;4891106;29;20188;-94
2023/10/04 01:40:47;;;;;;;1354.00;999.90;;;11.90;99.90;;;;;;4899624;29;20054;-95
2023/10/04 01:43:19;;;;;;;1362.97;999.90;;;11.90;99.90;;;;;;4901649;29;20047;-95
2023/10/04 01:45:51;;;;;;;1432.47;999.90;;;11.90;99.90;;;;;;4888337;29;20055;-95
2023/10/04 01:48:19;;;;;;;1295.07;987.58;;;11.90;99.90;;;;;;4900247;29;20391;-94
2023/10/04 01:50:48;;;;;;;1349.28;999.90;;;11.90;99.90;;;;;;4889974;29;20047;-95
2023/10/04 01:53:15;;;;;;;1385.32;999.90;;;11.90;99.90;;;;;;4899294;29;20518;-95
2023/10/04 01:55:41;;;;;;;1301.75;996.80;;;11.90;99.90;;;;;;4890394;29;20051;-95
2023/10/04 01:58:08;;;;;;;1250.72;979.25;;;11.90;99.90;;;;;;4901199;29;20066;-95
2023/10/04 02:00:35;;;;;;;1296.10;992.40;;;11.90;99.90;;;;;;4902506;29;20082;-95
2023/10/04 02:03:01;;;;;;;1321.72;988.60;;;11.90;99.90;;;;;;4901135;29;20044;-94
2023/10/04 02:05:32;;;;;;;1528.20;999.90;;;11.90;99.90;;;;;;4902805;29;20127;-94
2023/10/04 02:07:58;;;;;;;1424.72;999.90;;;11.90;99.90;;;;;;4904648;29;20056;-95
2023/10/04 02:10:25;;;;;;;1467.03;999.90;;;11.80;99.90;;;;;;4904503;29;20058;-94
2023/10/04 02:12:51;;;;;;;1226.15;974.80;;;11.80;99.90;;;;;;4917069;29;20107;-95
2023/10/04 02:15:17;;;;;;;1439.65;999.90;;;11.80;99.90;;;;;;4904934;29;20044;-95
2023/10/04 02:17:44;;;;;;;1421.60;999.90;;;11.80;99.90;;;;;;4904487;29;20039;-96
2023/10/04 02:20:13;;;;;;;1261.35;983.67;;;11.80;99.90;;;;;;4898693;29;20520;-95
2023/10/04 02:22:39;;;;;;;1259.53;987.72;;;11.80;99.90;;;;;;4894815;29;20079;-94
2023/10/04 02:25:06;;;;;;;1407.43;999.90;;;11.80;99.90;;;;;;4893500;29;20059;-95
2023/10/04 02:27:32;;;;;;;1212.72;968.53;;;11.80;99.90;;;;;;4901643;29;20095;-95
2023/10/04 02:29:58;;;;;;;1249.03;984.42;;;12.10;99.90;;;;;;4901756;29;20052;-95
2023/10/04 02:32:27;;;;;;;1469.93;999.90;;;11.80;99.90;;;;;;4901166;29;20552;-95
2023/10/04 02:34:54;;;;;;;1388.95;999.90;;;11.80;99.90;;;;;;4901937;29;20060;-94
2023/10/04 02:37:21;;;;;;;1393.00;999.90;;;11.80;99.90;;;;;;4898240;29;20044;-93
2023/10/04 02:39:47;;;;;;;1270.93;993.17;;;11.80;99.90;;;;;;4908363;29;20479;-95
2023/10/04 02:42:12;;;;;;;1261.30;983.25;;;11.80;99.90;;;;;;4902057;29;20135;-95
2023/10/04 02:44:39;;;;;;;1462.30;999.90;;;11.80;99.90;;;;;;4900790;29;20489;-95
2023/10/04 02:47:06;;;;;;;1380.35;999.90;;;11.90;99.90;;;;;;4902213;29;20040;-95
2023/10/04 02:49:37;;;;;;;1303.90;995.13;;;11.80;99.90;;;;;;4901318;29;20048;-95
2023/10/04 02:52:06;;;;;;;1216.80;984.85;;;11.80;99.90;;;;;;4901128;29;20047;-95
2023/10/04 02:54:33;;;;;;;1443.22;999.90;;;11.90;99.90;;;;;;4900872;29;20465;-95
2023/10/04 02:57:00;;;;;;;1242.65;981.90;;;11.90;99.90;;;;;;4900545;29;20059;-94
2023/10/04 02:59:26;;;;;;;1274.78;992.58;;;11.90;99.90;;;;;;4900880;29;20047;-96
2023/10/04 03:01:54;;;;;;;1430.97;999.90;;;11.90;99.90;;;;;;4897354;29;20068;-96
2023/10/04 03:04:20;;;;;;;1340.93;999.90;;;12.00;99.90;;;;;;4895502;29;20420;-96
2023/10/04 03:06:47;;;;;;;1391.65;999.90;;;12.00;99.90;;;;;;4902331;29;20103;-96
2023/10/04 03:09:13;;;;;;;1228.07;985.45;;;12.10;99.90;;;;;;4902129;29;20212;-96
2023/10/04 03:11:42;;;;;;;1337.95;999.90;;;12.10;99.90;;;;;;4896843;29;20128;-96
2023/10/04 03:14:11;;;;;;;1263.25;995.95;;;12.10;99.90;;;;;;4898544;29;20047;-93
2023/10/04 03:16:40;;;;;;;1231.75;988.17;;;12.20;99.90;;;;;;4901339;29;20047;-95
2023/10/04 03:19:06;;;;;;;1303.20;992.22;;;12.10;99.90;;;;;;4899651;29;20174;-94
2023/10/04 03:21:33;;;;;;;1140.07;949.60;;;12.10;99.90;;;;;;4902066;29;20492;-94
2023/10/04 03:24:00;;;;;;;1263.43;988.17;;;12.10;99.90;;;;;;4901623;29;20059;-94
2023/10/04 03:26:25;;;;;;;1274.85;992.03;;;12.00;99.90;;;;;;4901420;29;20040;-94
2023/10/04 03:28:51;;;;;;;1177.50;959.90;;;11.90;99.90;;;;;;4900078;29;20843;-94
2023/10/04 03:31:20;;;;;;;1219.93;968.40;;;12.00;99.90;;;;;;4886635;29;20052;-94
2023/10/04 03:33:46;;;;;;;1292.60;995.25;;;12.00;99.90;;;;;;4883369;29;20056;-94
2023/10/04 03:36:17;;;;;;;1178.95;957.78;;;11.90;99.90;;;;;;4901455;29;20206;-94
2023/10/04 03:38:44;;;;;;;1315.32;991.45;;;11.90;99.90;;;;;;4897885;29;20084;-93
2023/10/04 03:41:10;;;;;;;1190.97;954.35;;;12.00;99.90;;;;;;4896165;29;20044;-93
2023/10/04 03:43:36;;;;;;;1206.00;964.88;;;11.90;99.90;;;;;;4901584;29;20044;-95
2023/10/04 03:46:16;;;;;;;1313.47;997.75;;;11.90;99.90;;;;;;4888952;29;20115;-93
2023/10/04 03:48:45;;;;;;;1320.95;999.15;;;11.90;99.90;;;;;;4901057;29;20052;-93
2023/10/04 03:51:11;;;;;;;1260.13;995.72;;;11.90;99.90;;;;;;4913404;29;20057;-94
2023/10/04 03:53:37;;;;;;;1158.78;956.30;;;11.90;99.90;;;;;;4913666;29;20055;-94
2023/10/04 03:56:04;;;;;;;1312.75;996.72;;;11.90;99.90;;;;;;4907070;29;20135;-94
2023/10/04 03:58:34;;;;;;;1337.95;999.25;;;11.90;99.90;;;;;;4901015;29;20089;-94
2023/10/04 04:00:59;;;;;;;1141.18;954.42;;;12.00;99.90;;;;;;4900640;29;20079;-93
2023/10/04 04:03:27;;;;;;;1303.22;995.60;;;12.00;99.90;;;;;;4901012;29;20041;-93
2023/10/04 04:05:54;;;;;;;1268.43;992.92;;;12.00;99.90;;;;;;4900250;29;20074;-94
2023/10/04 04:08:20;;;;;;;1147.22;948.63;;;12.00;99.90;;;;;;4899991;29;20074;-94
2023/10/04 04:10:46;;;;;;;1108.38;945.35;;;12.00;99.90;;;;;;4900187;29;20135;-94
2023/10/04 04:13:13;;;;;;;1255.38;983.67;;;12.00;99.90;;;;;;4889510;29;20108;-94
2023/10/04 04:15:39;;;;;;;1110.47;947.40;;;11.90;99.90;;;;;;4898984;29;20052;-95
2023/10/04 04:18:20;;;;;;;1305.55;996.30;;;11.90;99.90;;;;;;4900858;29;20072;-94
2023/10/04 04:20:47;;;;;;;1120.00;948.35;;;11.90;99.90;;;;;;4896080;29;20061;-95
2023/10/04 04:23:15;;;;;;;1166.22;954.58;;;11.90;99.90;;;;;;4899344;29;20044;-94
2023/10/04 04:25:41;;;;;;;1145.07;959.40;;;11.80;99.90;;;;;;4897038;29;20123;-94
2023/10/04 04:28:12;;;;;;;1320.35;994.70;;;11.80;99.90;;;;;;4883977;29;20058;-95
2023/10/04 04:30:40;;;;;;;1345.03;999.90;;;11.80;99.90;;;;;;4895211;29;20551;-94
2023/10/04 04:33:07;;;;;;;1318.63;999.53;;;11.80;99.90;;;;;;4886887;29;20102;-94
2023/10/04 04:38:17;;;;;;;1275.68;990.15;;;11.80;99.90;;;;;;4916043;29;20079;-94
2023/10/04 04:40:46;;;;;;;1267.13;994.00;;;11.80;99.90;;;;;;4899226;29;20044;-95
2023/10/04 04:43:34;;;;;;;1192.50;966.33;;;11.80;99.90;;;;;;4899899;29;20044;-94
2023/10/04 04:46:00;;;;;;;1378.75;999.90;;;11.80;99.90;;;;;;4896621;29;20052;-94
2023/10/04 04:48:31;;;;;;;1368.75;997.97;;;11.80;99.90;;;;;;4896615;29;20095;-95
2023/10/04 04:51:10;;;;;;;1216.53;974.10;;;11.80;99.90;;;;;;4899040;29;20500;-95
2023/10/04 04:53:40;;;;;;;1272.05;985.92;;;11.80;99.90;;;;;;4899296;29;20187;-95
2023/10/04 04:56:11;;;;;;;1438.03;999.90;;;11.80;99.90;;;;;;4899275;29;20103;-94
2023/10/04 04:58:38;;;;;;;1303.27;993.70;;;11.80;99.90;;;;;;4885330;29;20056;-95
2023/10/04 05:01:08;;;;;;;1349.47;998.97;;;11.90;99.90;;;;;;4908428;29;20488;-95
2023/10/04 05:03:34;;;;;;;1316.25;997.72;;;11.90;99.90;;;;;;4898262;29;20081;-95
2023/10/04 05:06:00;;;;;;;1137.35;950.75;;;11.90;99.90;;;;;;4898761;29;20048;-95
2023/10/04 05:08:26;;;;;;;1164.05;958.30;;;11.90;99.90;;;;;;4898627;29;20415;-94
2023/10/04 05:10:57;;;;;;;1107.68;940.53;;;12.00;99.90;;;;;;4898099;29;20056;-93
2023/10/04 05:13:22;;;;;;;1132.18;950.35;;;11.90;99.90;;;;;;4898064;29;20051;-94
2023/10/04 05:15:49;;;;;;;1156.18;948.53;;;11.90;99.90;;;;;;4898230;29;20056;-95
2023/10/04 05:18:17;;;;;;;1185.95;964.20;;;11.90;99.90;;;;;;4897645;29;20036;-95
2023/10/04 05:20:51;;;;;;;1179.22;968.95;;;11.90;99.90;;;;;;4894517;29;20104;-95
2023/10/04 05:23:19;;;;;;;1157.50;949.97;;;11.90;99.90;;;;;;4896579;29;20412;-95
2023/10/04 05:25:45;;;;;;;1166.20;962.13;;;11.90;99.90;;;;;;4897992;29;20036;-95
2023/10/04 05:28:12;;;;;;;1190.80;968.45;;;11.80;99.90;;;;;;4898281;29;20108;-95
2023/10/04 05:30:41;;;;;;;1180.18;971.00;;;11.90;99.90;;;;;;4898045;29;20052;-95
2023/10/04 05:33:07;;;;;;;1211.05;981.03;;;11.80;99.90;;;;;;4898291;29;20040;-95
2023/10/04 05:35:35;;;;;;;1328.82;998.75;;;11.80;99.90;;;;;;4883908;29;20044;-95
2023/10/04 05:38:03;;;;;;;1340.90;998.00;;;11.80;99.90;;;;;;4888495;29;20060;-95
2023/10/04 05:40:31;;;;;;;1313.65;996.38;;;11.80;99.90;;;;;;4885408;29;20147;-95
2023/10/04 05:42:58;;;;;;;1148.32;961.60;;;11.80;99.90;;;;;;4897597;29;20076;-95
2023/10/04 05:45:25;;;;;;;1195.05;967.35;;;11.80;99.90;;;;;;4897696;29;20040;-95
2023/10/04 05:47:52;;;;;;;1222.63;979.38;;;11.90;99.90;;;;;;4895143;29;20079;-96
2023/10/04 05:50:21;;;;;;;1219.82;970.38;;;11.90;99.90;;;;;;4891989;29;20036;-95
2023/10/04 05:52:49;;;;;;;1196.05;973.00;;;11.90;99.90;;;;;;4889817;29;20044;-95
2023/10/04 05:55:16;;;;;;;1216.45;970.22;;;11.90;99.90;;;;;;4898333;29;20183;-95
2023/10/04 05:57:45;;;;;;;1347.47;998.70;;;12.00;99.90;;;;;;4898156;29;20146;-95
2023/10/04 06:00:28;;;;;;;1330.68;999.60;;;11.90;99.90;;;;;;4882323;29;20059;-95
2023/10/04 06:02:56;;;;;;;1447.60;999.90;;;12.00;99.90;;;;;;4893823;29;20044;-95
2023/10/04 06:05:24;;;;;;;1126.18;953.35;;;12.00;99.90;;;;;;4898196;29;20131;-94
2023/10/04 06:07:51;;;;;;;1280.60;990.28;;;11.90;99.90;;;;;;4898411;29;20058;-94
2023/10/04 06:10:18;;;;;;;1112.63;950.80;;;12.00;99.90;;;;;;4897812;29;20067;-95
2023/10/04 06:12:46;;;;;;;1135.38;955.97;;;12.00;99.90;;;;;;4898061;29;20058;-95
2023/10/04 06:15:15;;;;;;;1310.22;996.45;;;12.00;99.90;;;;;;4899233;29;20685;-96
2023/10/04 06:17:43;;;;;;;1124.65;955.15;;;11.90;99.90;;;;;;4897965;29;20135;-94
2023/10/04 06:20:25;;;;;;;1320.05;995.95;;;11.90;99.90;;;;;;4899019;29;20102;-94
2023/10/04 06:23:01;;;;;;;1327.25;995.25;;;11.90;99.90;;;;;;4898088;29;20591;-89
2023/10/04 06:25:29;;;;;;;1286.25;989.90;;;12.10;99.90;;;;;;4901139;29;20040;-95
2023/10/04 06:27:56;;;;;;;1162.75;961.65;;;12.00;99.90;;;;;;4884034;29;20041;-96
2023/10/04 06:30:26;;;;;;;1290.35;992.05;;;12.00;99.90;;;;;;4891260;29;20531;-95
2023/10/04 06:32:56;;;;;;;1320.18;999.33;;;12.00;99.90;;;;;;4905838;29;20043;-94
2023/10/04 06:35:24;;;;;;;1130.80;951.45;;;12.10;99.90;;;;;;4914059;29;20055;-96
2023/10/04 06:37:52;;;;;;;1154.47;962.53;;;12.10;99.90;;;;;;4890718;29;20091;-95
2023/10/04 06:40:19;;;;;;;1172.93;974.60;;;12.10;99.90;;;;;;4882670;29;20132;-96
2023/10/04 06:42:47;;;;;;;1089.38;938.70;;;12.10;99.90;;;;;;4885131;29;20044;-96
2023/10/04 06:45:13;;;;;;;1094.10;937.08;;;12.20;99.90;;;;;;4893684;29;20104;-96
2023/10/04 06:47:43;;;;;;;1288.47;995.80;;;12.20;99.90;;;;;;4899217;29;20403;-95
2023/10/04 06:50:13;;;;;;;1127.70;950.30;;;12.20;99.90;;;;;;4898190;29;20107;-95
2023/10/04 06:52:44;;;;;;;1272.22;993.38;;;12.30;99.90;;;;;;4896163;29;20051;-95
2023/10/04 06:55:18;;;;;;;1078.50;937.15;;;12.30;99.90;;;;;;4900393;29;20048;-94
2023/10/04 06:57:45;;;;;;;1057.10;935.05;;;12.40;99.90;;;;;;4888531;29;20208;-94
2023/10/04 07:00:15;;;;;;;1258.85;989.38;;;12.40;99.90;;;;;;4899364;29;20107;-95
2023/10/04 07:02:47;;;;;;;1236.45;981.50;;;12.40;99.90;;;;;;4900214;29;20079;-96
2023/10/04 07:05:17;;;;;;;1223.05;982.30;;;12.50;99.90;;;;;;4900813;29;20048;-96
2023/10/04 07:07:44;;;;;;;1265.20;974.15;;;12.50;99.90;;;;;;4900888;29;20168;-96
2023/10/04 07:10:29;;;;;;;1049.18;931.00;;;12.60;99.90;;;;;;4899971;29;20040;-94
2023/10/04 07:12:58;;;;;;;1040.85;921.15;;;12.70;99.90;;;;;;4899706;29;20044;-95
2023/10/04 07:15:27;;;;;;;1009.33;901.67;;;12.70;99.90;;;;;;4897460;29;20045;-93
2023/10/04 07:17:54;;;;;;;1025.95;915.45;;;12.80;99.90;;;;;;4899220;29;20059;-95
2023/10/04 07:20:23;;;;;;;1020.83;911.88;;;12.90;99.90;;;;;;4903541;29;20082;-94
2023/10/04 07:23:03;;;;;;;988.00;885.40;;;12.90;99.90;;;;;;4903034;29;20111;-96
2023/10/04 07:25:31;;;;;;;1095.85;946.58;;;13.00;99.90;;;;;;4904950;29;20043;-96
2023/10/04 07:28:01;;;;;;;1052.28;934.20;;;13.00;99.90;;;;;;4900640;29;20047;-96
2023/10/04 07:30:27;;;;;;;991.88;889.35;;;13.20;99.90;;;;;;4913360;29;20048;-96
2023/10/04 07:32:53;;;;;;;1027.82;917.13;;;13.20;99.90;;;;;;4905631;29;20082;-96
2023/10/04 07:35:25;;;;;;;1023.28;915.35;;;13.30;99.90;;;;;;4902505;29;20071;-96
2023/10/04 07:37:52;;;;;;;966.30;868.10;;;13.40;99.90;;;;;;4903353;29;20115;-95
2023/10/04 07:40:23;;;;;;;959.63;863.47;;;13.50;99.90;;;;;;4902206;29;20051;-96
2023/10/04 07:42:59;;;;;;;999.70;896.25;;;13.50;99.90;;;;;;4909737;29;20054;-95
2023/10/04 07:45:28;;;;;;;957.10;863.30;;;13.60;99.90;;;;;;4903634;29;20040;-96
2023/10/04 07:47:54;;;;;;;954.15;860.47;;;13.70;99.90;;;;;;4903777;29;20127;-95
2023/10/04 07:50:26;;;;;;;955.83;862.58;;;13.80;99.90;;;;;;4900536;29;20099;-96
2023/10/04 07:52:58;;;;;;;980.20;882.38;;;13.90;99.90;;;;;;4893807;29;20051;-95
2023/10/04 07:55:25;;;;;;;962.35;865.20;;;14.00;99.90;;;;;;4902436;29;20122;-95
2023/10/04 07:57:53;;;;;;;972.58;875.28;;;14.10;99.90;;;;;;4895636;29;20115;-95
2023/10/04 08:00:20;;;;;;;979.95;880.38;;;14.20;99.90;;;;;;4898718;29;20113;-95
2023/10/04 08:02:50;;;;;;;945.45;852.92;;;14.30;99.90;;;;;;4901514;29;20072;-96
2023/10/04 08:05:23;;;;;;;958.67;862.47;;;14.40;99.90;;;;;;4901047;29;20122;-95
2023/10/04 08:07:56;;;;;;;991.88;889.65;;;14.50;99.90;;;;;;4900471;29;20052;-96
2023/10/04 08:10:25;;;;;;;982.17;881.05;;;14.60;99.90;;;;;;4899796;29;20079;-95
2023/10/04 08:12:54;;;;;;;966.92;869.28;;;14.60;99.90;;;;;;4884035;29;20550;-96
2023/10/04 08:15:22;;;;;;;977.15;878.17;;;14.70;99.90;;;;;;4900413;29;20184;-96
2023/10/04 08:17:48;;;;;;;1022.00;899.53;;;14.70;99.90;;;;;;4897909;29;20071;-96
2023/10/04 08:20:15;;;;;;;1069.85;915.60;;;14.80;99.90;;;;;;4884966;29;20048;-96
2023/10/04 08:22:42;;;;;;;1059.13;925.85;;;14.90;99.90;;;;;;4893130;29;20112;-95
2023/10/04 08:25:10;;;;;;;1052.35;913.90;;;15.00;99.90;;;;;;4902271;29;20112;-96
2023/10/04 08:27:37;;;;;;;1049.60;917.58;;;15.00;99.90;;;;;;4900442;29;20075;-96
2023/10/04 08:30:06;;;;;;;970.83;867.95;;;15.10;99.90;;;;;;4901394;29;20046;-96
2023/10/04 08:32:33;;;;;;;1006.83;899.40;;;15.10;99.90;;;;;;4901038;29;20040;-96
2023/10/04 08:47:10;;;;;;;1024.88;906.53;;;15.40;99.90;;;;;;4713980;30;20148;-96
2023/10/04 08:57:21;;;;;;;946.35;852.60;;;15.60;99.90;;;;;;4722039;30;20463;-86
2023/10/04 09:00:02;;;;;;;944.33;850.75;;;15.60;99.90;;;;;;4818809;29;20057;-95
2023/10/04 09:05:10;;;;;;;813.67;740.00;;;15.60;99.90;;;;;;4968109;23;20056;-96
2023/10/04 09:07:36;;;;;;;800.15;728.40;;;15.50;99.90;;;;;;4879522;29;20482;-95
2023/10/04 09:10:05;;;;;;;905.15;816.83;;;15.50;99.90;;;;;;4875734;29;20055;-94
2023/10/04 09:12:31;;;;;;;898.35;812.97;;;15.50;99.90;;;;;;4887071;29;20108;-94
2023/10/04 09:14:57;;;;;;;878.83;795.42;;;15.50;99.90;;;;;;4878958;29;20135;-94
2023/10/04 09:17:25;;;;;;;953.33;858.40;;;15.50;99.90;;;;;;4879701;29;20139;-94
2023/10/04 09:19:52;;;;;;;964.50;865.15;;;15.70;99.90;;;;;;4879482;29;20045;-94
2023/10/04 09:22:30;;;;;;;937.47;844.65;;;15.80;99.90;;;;;;4879867;29;20489;-92
2023/10/04 09:24:56;;;;;;;880.05;796.85;;;15.90;99.90;;;;;;4879488;29;20047;-93
2023/10/04 09:27:23;;;;;;;857.45;777.53;;;16.00;99.90;;;;;;4870380;29;20060;-92
2023/10/04 09:29:49;;;;;;;776.05;708.38;;;16.00;99.90;;;;;;4879334;29;20131;-93
2023/10/04 09:32:38;;;;;;;819.15;743.60;;;16.10;99.90;;;;;;4879570;29;20108;-92
2023/10/04 09:35:08;;;;;;;907.58;819.28;;;16.10;99.90;;;;;;4876733;29;20049;-94
2023/10/04 09:37:34;;;;;;;937.53;843.42;;;16.10;99.90;;;;;;4875926;29;20409;-92
2023/10/04 09:40:08;;;;;;;748.20;682.63;;;16.30;99.90;;;;;;4873065;29;20041;-92
2023/10/04 09:42:53;;;;;;;723.90;660.33;;;16.40;99.90;;;;;;4880257;29;20049;-92
2023/10/04 09:45:21;;;;;;;881.15;798.67;;;16.50;99.90;;;;;;4882134;29;20070;-94
2023/10/04 09:47:52;;;;;;;889.55;805.78;;;16.70;99.90;;;;;;4879940;29;20056;-94
2023/10/04 09:50:23;;;;;;;790.42;717.67;;;16.80;99.90;;;;;;4884277;29;20045;-90
2023/10/04 09:52:50;;;;;;;748.38;681.70;;;16.90;99.90;;;;;;4880204;29;20045;-90
2023/10/04 09:55:16;;;;;;;776.75;707.88;;;16.80;99.90;;;;;;4879263;29;20096;-91
2023/10/04 09:57:43;;;;;;;726.05;662.60;;;16.70;99.90;;;;;;4879394;29;20135;-90
2023/10/04 10:00:17;;;;;;;721.88;658.45;;;16.60;99.90;;;;;;4880599;29;20041;-90
2023/10/04 10:02:48;;;;;;;748.35;683.83;;;16.70;99.90;;;;;;4879588;29;20045;-94
2023/10/04 10:05:25;;;;;;;659.78;602.35;;;16.80;99.90;;;;;;4878598;29;20123;-93
2023/10/04 10:07:52;;;;;;;745.13;679.10;;;16.80;99.90;;;;;;4885167;29;20040;-91
2023/10/04 10:10:20;;;;;;;746.22;680.30;;;16.80;99.90;;;;;;4879099;29;20056;-91
2023/10/04 10:12:49;;;;;;;762.60;695.00;;;16.80;99.90;;;;;;4879358;29;20049;-92
2023/10/04 10:15:18;;;;;;;675.17;617.10;;;16.80;99.90;;;;;;4878835;29;20041;-93
2023/10/04 10:17:46;;;;;;;687.17;628.03;;;16.90;99.90;;;;;;4879231;29;20052;-92
2023/10/04 10:20:15;;;;;;;650.00;594.05;;;17.00;99.90;;;;;;4871864;29;20048;-92
2023/10/04 10:23:13;;;;;;;656.38;597.55;;;17.10;99.90;;;;;;4879221;29;20052;-91
2023/10/04 10:25:41;;;;;;;724.85;654.25;;;17.20;99.90;;;;;;4875632;29;20048;-92
2023/10/04 10:28:22;;;;;;;762.83;685.70;;;17.20;99.90;;;;;;4881679;29;20053;-92
2023/10/04 10:30:48;;;;;;;791.13;712.72;;;17.20;99.90;;;;;;4882720;29;20070;-92
2023/10/04 10:33:21;;;;;;;664.00;606.10;;;17.10;99.90;;;;;;4882751;29;20048;-93
2023/10/04 10:35:48;;;;;;;715.40;652.00;;;17.10;99.90;;;;;;4882572;29;20390;-93
2023/10/04 10:38:44;;;;;;;733.45;666.63;;;17.10;99.90;;;;;;4882871;29;20080;-93
2023/10/04 10:41:28;;;;;;;745.58;673.13;;;17.00;99.90;;;;;;4882755;29;20060;-92
2023/10/04 10:44:19;;;;;;;700.92;637.63;;;17.00;99.90;;;;;;4881968;29;20048;-92
2023/10/04 10:46:57;;;;;;;704.60;639.28;;;17.00;99.90;;;;;;4882589;29;20132;-92
2023/10/04 10:49:44;;;;;;;718.33;652.53;;;16.90;99.90;;;;;;4882326;29;20052;-92
2023/10/04 10:52:31;;;;;;;774.25;701.17;;;16.90;99.90;;;;;;4882690;29;20060;-93
2023/10/04 10:54:59;;;;;;;691.50;631.05;;;16.80;99.90;;;;;;4882221;29;20058;-93
2023/10/04 10:57:28;;;;;;;729.53;663.97;;;16.80;99.90;;;;;;4882309;29;20052;-93
2023/10/04 10:59:56;;;;;;;708.53;644.78;;;16.80;99.90;;;;;;4881666;29;20067;-93
2023/10/04 11:02:24;;;;;;;755.53;685.83;;;16.70;99.90;;;;;;4882303;29;20390;-93
2023/10/04 11:04:50;;;;;;;783.15;709.40;;;16.70;99.90;;;;;;4881023;29;20079;-93
2023/10/04 11:07:17;;;;;;;740.78;670.08;;;16.70;99.90;;;;;;4882666;29;20497;-94
2023/10/04 11:09:49;;;;;;;776.47;705.70;;;16.70;99.90;;;;;;4881631;29;20583;-91
2023/10/04 11:12:17;;;;;;;687.08;626.75;;;16.70;99.90;;;;;;4882343;29;20079;-93
2023/10/04 11:14:43;;;;;;;719.25;651.72;;;16.70;99.90;;;;;;4881419;29;20055;-93
2023/10/04 11:17:10;;;;;;;766.85;694.72;;;16.70;99.90;;;;;;4881963;29;20044;-93
2023/10/04 11:19:36;;;;;;;735.72;669.42;;;16.70;99.90;;;;;;4882243;29;20127;-93
2023/10/04 11:22:03;;;;;;;707.00;644.42;;;16.70;99.90;;;;;;4881875;29;20136;-92
2023/10/04 11:24:30;;;;;;;720.13;656.22;;;16.70;99.90;;;;;;4882075;29;20107;-92
2023/10/04 11:26:57;;;;;;;698.90;637.58;;;16.70;99.90;;;;;;4872593;29;20044;-93
2023/10/04 11:29:25;;;;;;;839.97;761.10;;;16.70;99.90;;;;;;4893369;29;20100;-93
2023/10/04 11:31:51;;;;;;;783.95;713.20;;;16.70;99.90;;;;;;4894447;29;20056;-91
2023/10/04 11:34:17;;;;;;;821.97;747.08;;;16.80;99.90;;;;;;4877994;29;20037;-92
2023/10/04 11:36:44;;;;;;;774.90;704.45;;;16.80;99.90;;;;;;4893556;29;20055;-92
2023/10/04 11:39:13;;;;;;;802.90;729.95;;;16.80;99.90;;;;;;4892112;29;20049;-93
2023/10/04 11:41:39;;;;;;;780.90;709.00;;;16.90;99.90;;;;;;4894008;29;20379;-93
2023/10/04 11:44:07;;;;;;;788.60;715.28;;;16.90;99.90;;;;;;4882548;29;20044;-93
2023/10/04 11:46:54;;;;;;;817.78;741.35;;;17.00;99.90;;;;;;4897821;29;20063;-92
2023/10/04 11:49:19;;;;;;;798.28;722.80;;;17.00;99.90;;;;;;4874282;29;20397;-93
2023/10/04 11:52:00;;;;;;;;;;;;;;;;;;;;;
2023/10/04 11:55:19;;;;;;;796.35;721.97;;;17.00;99.90;;;;;;4897799;29;20044;-91
2023/10/04 11:57:45;;;;;;;815.40;736.83;;;17.00;99.90;;;;;;4879463;29;20101;-91
2023/10/04 12:00:18;;;;;;;814.58;736.85;;;17.00;99.90;;;;;;4880914;29;20080;-92
2023/10/04 12:02:44;;;;;;;786.35;714.03;;;17.10;99.90;;;;;;4881097;29;20052;-92
2023/10/04 12:05:13;;;;;;;838.58;758.58;;;17.00;99.90;;;;;;4880951;29;20478;-93
2023/10/04 12:07:38;;;;;;;831.20;751.67;;;17.10;99.90;;;;;;4880826;29;20041;-93
2023/10/04 12:10:09;;;;;;;831.90;751.72;;;17.10;99.90;;;;;;4882980;29;20365;-92
2023/10/04 12:12:36;;;;;;;847.83;766.15;;;17.10;99.90;;;;;;4881029;29;20039;-92
2023/10/04 12:15:07;;;;;;;819.50;743.13;;;17.20;99.90;;;;;;4881375;29;20049;-92
2023/10/04 12:17:34;;;;;;;856.50;774.90;;;17.30;99.90;;;;;;4881014;29;20048;-92
2023/10/04 12:20:04;;;;;;;801.40;726.63;;;17.30;99.90;;;;;;4880132;29;20044;-95
2023/10/04 12:22:33;;;;;;;837.38;756.17;;;17.30;99.90;;;;;;4880650;29;20087;-94
2023/10/04 12:25:00;;;;;;;845.92;765.00;;;17.40;99.90;;;;;;4880627;29;20056;-95
2023/10/04 12:27:27;;;;;;;856.10;773.60;;;17.30;99.90;;;;;;4880282;29;20411;-94
2023/10/04 12:29:53;;;;;;;823.90;745.95;;;17.30;99.90;;;;;;4879901;29;20560;-95
2023/10/04 12:32:19;;;;;;;834.95;755.55;;;17.30;99.90;;;;;;4880514;29;20064;-94
2023/10/04 12:34:53;;;;;;;828.72;750.88;;;17.30;99.90;;;;;;4880717;29;20055;-89
2023/10/04 12:37:19;;;;;;;849.58;768.08;;;17.30;99.90;;;;;;4879566;29;20041;-93